Aérodrome :
LOGIN :

S'inscrire | Disclaimer

   EN    FR    IT 

 










Légende :    VFR   VFR Marginal   IFR   IFR Intensif   IFR Très Intensif
Visi : 
Plafond : 
>= 8 km
>= 3000ft
5 à 8 km
1000 à 3000 ft
1500m à 5 km
500 à 1000 ft
800 à 1500m
200 à 500 ft
< 800m
< 200 ft
Symboles :   Orages  Brouillard  Fortes neiges  Fortes précipitations  Vent > 20 kt
SIGMETs :   Divers  Orages  Givrage  Turbulence  Onde Orograph.  Cendres Volcan.






- Altitude de l'aérodrome : 276 ft


LYVR - Vršac International

DERNIER METAR :
  • 201400Z 12022G33KT CAVOK 15/10 Q1013 NOSIG

METARs EXPIRÉS :
  • 201330Z 12020G33KT CAVOK 15/10 Q1013 NOSIG
  • 201300Z 12019G29KT CAVOK 15/10 Q1013 NOSIG
  • 201230Z 12022G32KT 9999 SCT040 15/09 Q1013 NOSIG
  • 201200Z 11020G36KT 9999 SCT040 14/10 Q1013 NOSIG
  • 201130Z 10022G40KT 9999 -RA SCT040 14/11 Q1014 NOSIG

TAF TAF LYVR
Valide du 20 à 12h jusqu'au 21 à 12h UTC


201100Z 2012/2112 14018G35KT 9999 SCT040 TX17/2012Z TN10/2105Z
TEMPO 2012/2016 15025G43KT
PROB40
TEMPO 2012/2015 RA



MET'MAP, la Météo Aéronautique d'un coup d'oeil ! - Copyright ORBIFLY Décembre 2007 - Disclaimer

ORBIFLY MET'MAP TEAM :

Programmation & Développement : Alexandra Zaïnal
Conception & Développement : Baudouin d'Aumeries
Co-Programmation & Développement : Marc-Olivier Méhu
Soutien technique & logistique : Manuel Goepfert

Contact : metmap@orbifly.com




SOURCES & CREDITS :

   NOAA